FRIANT DAM (MILLERTON) (MIL)

Elevation: 581' · SAN JOAQUIN R basin · Operator: US Bureau of Reclamation


Station comments:

11/19/2014Hourly storage has resumed as of 11/19/2014. It had previously stopped at 2/26/1998.


Provisional data, subject to change.
Query executed Tuesday at 15:45:50   clock

Select a sensor type for a plot of data.
Note: Reservoir Flows are daily averages.

Earlier

Date RES ELE    STORAGE    RES CHG    TOC STO    ABV TOC    OUTFLOW    INFLOW    EVAP    FNF    RIV REL    PPT INC    SPILL   
 FEET   AF   AF   AF   AF   CFS   CFS   CFS   CFS   CFS   INCHES   CFS  
02/04/2015 489.78 186866 134 435500 -248634 162 238 8 223 162 0.00 0
02/05/2015 489.84 187026 160 435500 -248474 162 259 16 309 162 0.00 0
02/06/2015 489.96 187348 322 435500 -248152 162 342 18 277 162 0.76 0
02/07/2015 490.04 187563 215 435500 -247937 162 274 4 1182 162 0.04 0
02/08/2015 490.07 187645 82 435500 -247855 162 216 13 1601 162 0.01 0
02/09/2015 490.19 187970 325 435500 -247530 162 328 2 3662 162 0.00 0
02/10/2015 490.33 188349 379 435500 -247151 162 355 2 1318 162 0.00 0
02/11/2015 490.42 188593 244 435500 -246907 162 290 5 949 162 0.00 0
02/12/2015 490.48 188756 163 435500 -246744 162 255 11 823 162 0.00 0
02/13/2015 490.51 188837 81 435500 -246663 162 210 7 890 162 0.00 0
02/14/2015 490.59 189054 217 435500 -246446 162 282 11 819 162 0.00 0
02/15/2015 490.60 189081 27 435500 -246419 162 185 9 753 162 0.00 0
02/16/2015 490.79 189596 515 435500 -245904 162 429 7 732 162 0.00 0
02/17/2015 490.89 189867 271 435500 -245633 162 306 7 698 162 0.00 0
02/18/2015 491.03 190247 380 435500 -245253 162 358 4 645 162 0.00 0
02/19/2015 491.37 191177 930 435500 -244323 168 641 4 793 168 0.00 0
02/20/2015 491.62 191861 684 435500 -243639 158 506 3 673 158 0.00 0
02/21/2015 491.67 191997 136 435500 -- 141 212 2 592 141 0.00 0
02/22/2015 491.83 192435 438 435500 -243120 141 365 3 793 141 0.17 0
02/23/2015 492.00 192900 465 435500 -242600 142 383 7 596 142 0.40 0
02/24/2015 492.14 193286 386 435500 -242214 142 344 7 311 142 0.00 0
02/25/2015 492.39 193976 690 435500 -241524 140 497 9 659 140 0.00 0
02/26/2015 492.57 194472 496 435500 -241028 140 398 8 425 140 0.00 0
02/27/2015 492.78 195051 579 435500 -240449 140 443 11 473 140 0.00 0
02/28/2015 492.94 195493 442 435500 -240007 141 369 5 558 141 0.01 0
03/01/2015 493.27 196409 916 435500 -239091 151 622 9 427 151 0.00 0
03/02/2015 493.50 197050 641 436941 -239891 155 488 10 437 155 0.33 0
03/03/2015 -- -- -- -- -- -- -- -- -- -- -- --

Later | Latest

Warning! This data is preliminary and subject to revision.

Show MIL Map | Plot MIL Data | 1 Month MIL Data | Real-Time MIL Data | MIL Info